KOEO/OEO METAR and TAF weather

Enter ICAO airport designator
Station Type Date Time Source
KOEO METAR 2020/01/19 00:15 UTC NOAA

KOEO 190015Z AUTO 27013KT 10SM SCT025 M15/M18 A3002 RMK AO2 T11461185


Station Type Date Time Source
KOEO Decoded METAR 2020/01/19 00:15 UTC NOAA

Osceola, L O Simenstad Municipal Airport, WI, United States (KOEO) 45-18-31N 092-41-24W
Jan 18, 2020 - 07:15 PM EST / 2020.01.19 0015 UTC
Wind: from the W (270 degrees) at 15 MPH (13 KT):0
Visibility: 10 mile(s):0
Sky conditions: partly cloudy
Temperature: 5.7 F (-14.6 C)
Windchill: -11 F (-24 C):2
Dew Point: -1.3 F (-18.5 C)
Relative Humidity: 72%
Pressure (altimeter): 30.02 in. Hg (1016 hPa)
ob: KOEO 190015Z AUTO 27013KT 10SM SCT025 M15/M18 A3002 RMK AO2 T11461185
cycle: 0

Station Type Date Time Source
KOEO TAF UTC NOAA

Error!

Example: see airport list